Time;durP1;ratioP1;P1;durP2;ratioP2;P2;SDS_P1;SDS_P2;PMS_P1;PMS_P2;Temp;Humidity;BMP_temperature;BMP_pressure;BME280_temperature;BME280_humidity;BME280_pressure;Samples;Min_cycle;Max_cycle;Signal;HPM_P1;HPM_P2
2022/03/23 00:01:22;;;;;;;36.17;25.42;;;;;;;7.54;57.75;102900.53;5039683;28;20499;-86
2022/03/23 00:03:47;;;;;;;37.70;23.77;;;;;;;7.52;58.28;102898.81;5041739;28;20029;-87
2022/03/23 00:06:14;;;;;;;36.13;24.73;;;;;;;7.53;58.08;102912.00;5044916;28;20025;-87
2022/03/23 00:08:39;;;;;;;41.28;25.17;;;;;;;7.39;58.21;102893.03;5041058;28;20029;-86
2022/03/23 00:11:05;;;;;;;42.92;24.90;;;;;;;7.41;58.11;102905.31;5033750;28;20022;-86
2022/03/23 00:13:30;;;;;;;40.92;24.98;;;;;;;7.34;57.74;102902.88;5032011;28;20149;-86
2022/03/23 00:15:56;;;;;;;39.83;25.95;;;;;;;7.29;58.46;102902.16;5033232;28;20025;-85
2022/03/23 00:18:22;;;;;;;37.92;24.60;;;;;;;7.32;58.85;102910.00;5032601;28;20045;-86
2022/03/23 00:20:49;;;;;;;35.75;24.20;;;;;;;7.25;58.30;102897.88;5032290;28;20071;-86
2022/03/23 00:23:15;;;;;;;34.42;24.42;;;;;;;7.21;58.85;102905.03;5034055;28;20021;-86
2022/03/23 00:25:43;;;;;;;38.60;24.95;;;;;;;7.18;59.16;102910.41;5027544;28;20258;-86
2022/03/23 00:28:08;;;;;;;41.13;24.70;;;;;;;7.16;58.41;102910.47;5021483;28;20033;-86
2022/03/23 00:30:34;;;;;;;40.42;25.25;;;;;;;7.17;58.56;102917.47;5049720;28;20021;-86
2022/03/23 00:33:02;;;;;;;33.30;24.00;;;;;;;7.11;59.06;102916.78;5026111;28;20048;-87
2022/03/23 00:35:27;;;;;;;40.47;26.38;;;;;;;7.08;58.92;102915.09;5033941;28;20026;-86
2022/03/23 00:37:52;;;;;;;37.78;24.90;;;;;;;7.07;59.24;102912.50;5033800;28;20044;-86
2022/03/23 00:40:21;;;;;;;37.40;24.92;;;;;;;6.96;59.68;102899.56;5033564;28;20029;-86
2022/03/23 00:42:46;;;;;;;39.28;26.23;;;;;;;6.93;59.80;102902.31;5023781;28;20112;-86
2022/03/23 00:45:12;;;;;;;44.42;26.50;;;;;;;6.91;60.26;102909.41;5032757;28;20117;-86
2022/03/23 00:47:38;;;;;;;44.50;27.48;;;;;;;6.91;60.13;102917.34;5017738;28;20037;-86
2022/03/23 00:50:04;;;;;;;37.35;26.00;;;;;;;6.82;60.53;102908.75;5033380;28;20026;-86
2022/03/23 00:52:34;;;;;;;42.00;27.48;;;;;;;6.76;60.40;102906.31;5032434;28;20028;-87
2022/03/23 00:54:59;;;;;;;39.67;26.20;;;;;;;6.74;60.79;102910.75;5031260;28;20022;-87
2022/03/23 00:57:25;;;;;;;40.08;27.70;;;;;;;6.71;61.00;102900.28;5032558;28;20075;-87
2022/03/23 00:59:50;;;;;;;37.13;25.50;;;;;;;6.71;61.06;102913.50;5032269;28;20017;-87
2022/03/23 01:02:16;;;;;;;39.60;26.60;;;;;;;6.69;60.86;102911.78;5033218;28;20484;-87
2022/03/23 01:04:41;;;;;;;42.67;26.77;;;;;;;6.62;61.04;102911.94;5033262;28;20025;-87
2022/03/23 01:07:06;;;;;;;42.67;26.88;;;;;;;6.49;61.67;102897.34;5033610;28;20033;-87
2022/03/23 01:09:32;;;;;;;37.13;26.67;;;;;;;6.53;61.34;102903.41;5032205;28;20032;-87
2022/03/23 01:11:58;;;;;;;43.78;26.70;;;;;;;6.53;61.11;102906.03;5031121;28;20476;-87
2022/03/23 01:14:25;;;;;;;45.65;27.23;;;;;;;6.48;61.12;102906.19;5032059;28;20049;-87
2022/03/23 01:16:51;;;;;;;41.05;26.55;;;;;;;6.45;61.43;102906.25;5031051;28;20032;-87
2022/03/23 01:19:20;;;;;;;41.45;26.60;;;;;;;6.39;61.63;102903.75;5034550;28;20033;-85
2022/03/23 01:21:45;;;;;;;39.67;26.02;;;;;;;6.37;61.97;102909.09;5034400;28;20071;-87
2022/03/23 01:24:10;;;;;;;42.63;27.55;;;;;;;6.36;61.88;102912.66;5035978;28;20358;-87
2022/03/23 01:26:36;;;;;;;41.72;26.85;;;;;;;6.31;61.54;102906.59;5033473;28;20451;-86
2022/03/23 01:29:04;;;;;;;39.83;27.67;;;;;;;6.21;62.36;102898.06;5034146;28;20484;-87
2022/03/23 01:31:31;;;;;;;39.90;27.55;;;;;;;6.20;62.41;102900.75;5035690;28;20057;-87
2022/03/23 01:33:59;;;;;;;40.40;26.83;;;;;;;6.17;62.60;102903.44;5034729;28;20112;-87
2022/03/23 01:36:31;;;;;;;36.70;27.10;;;;;;;6.13;62.62;102892.13;5035029;28;20096;-87
2022/03/23 01:38:57;;;;;;;40.00;26.80;;;;;;;6.09;63.13;102899.22;5019789;28;20021;-87
2022/03/23 01:41:23;;;;;;;39.75;27.25;;;;;;;6.05;63.09;102900.19;5036153;28;20029;-86
2022/03/23 01:43:49;;;;;;;37.85;26.58;;;;;;;6.04;62.99;102900.25;5036069;28;20056;-88
2022/03/23 01:46:19;;;;;;;41.58;28.65;;;;;;;5.95;63.17;102885.47;5035289;28;20391;-87
2022/03/23 01:48:45;;;;;;;41.30;28.35;;;;;;;5.95;63.28;102897.81;5035047;28;20108;-87
2022/03/23 01:51:11;;;;;;;38.95;26.80;;;;;;;5.92;63.17;102896.09;5035041;28;20032;-87
2022/03/23 01:53:37;;;;;;;42.05;28.35;;;;;;;5.90;63.25;102884.72;5035574;28;20523;-86
2022/03/23 01:56:03;;;;;;;40.33;26.75;;;;;;;5.85;63.76;102890.09;5035782;28;20025;-87
2022/03/23 01:58:28;;;;;;;39.05;27.30;;;;;;;5.84;63.76;102891.00;5033210;28;20036;-87
2022/03/23 02:00:54;;;;;;;41.08;27.08;;;;;;;5.84;63.37;102890.13;5036129;28;20041;-87
2022/03/23 02:03:19;;;;;;;40.58;26.17;;;;;;;5.81;63.38;102883.19;5034067;28;20034;-87
2022/03/23 02:05:44;;;;;;;35.20;26.17;;;;;;;5.76;63.85;102879.75;5026328;28;20034;-87
2022/03/23 02:08:13;;;;;;;35.05;25.30;;;;;;;5.75;63.57;102885.97;5034751;28;20049;-86
2022/03/23 02:10:40;;;;;;;43.05;26.67;;;;;;;5.67;64.10;102874.72;5031189;28;20490;-87
2022/03/23 02:13:08;;;;;;;40.92;26.23;;;;;;;5.64;63.84;102880.91;5034608;28;20089;-87
2022/03/23 02:15:33;;;;;;;38.25;25.85;;;;;;;5.57;64.32;102874.06;5034918;28;20381;-86
2022/03/23 02:17:59;;;;;;;35.28;25.80;;;;;;;5.59;64.25;102884.56;5033272;28;20029;-87
2022/03/23 02:20:25;;;;;;;39.47;26.50;;;;;;;5.56;64.22;102883.75;5034273;28;20036;-87
2022/03/23 02:22:50;;;;;;;39.00;26.52;;;;;;;5.48;64.41;102879.53;5033417;28;20036;-86
2022/03/23 02:25:23;;;;;;;41.13;26.23;;;;;;;5.44;63.94;102872.59;5034217;28;20053;-87
2022/03/23 02:27:50;;;;;;;35.35;25.63;;;;;;;5.43;64.27;102882.28;5032121;28;20099;-87
2022/03/23 02:30:15;;;;;;;36.08;25.65;;;;;;;5.42;64.02;102875.28;5020866;28;20102;-87
2022/03/23 02:32:43;;;;;;;40.65;26.55;;;;;;;5.37;64.46;102867.47;5029929;28;20105;-86
2022/03/23 02:35:11;;;;;;;37.53;26.23;;;;;;;5.42;64.68;102887.59;5020361;28;20112;-87
2022/03/23 02:37:37;;;;;;;43.13;27.25;;;;;;;5.40;64.63;102881.50;5050648;28;20089;-87
2022/03/23 02:40:03;;;;;;;42.97;25.85;;;;;;;5.30;64.83;102884.31;5036674;28;20589;-87
2022/03/23 02:42:28;;;;;;;39.85;26.40;;;;;;;5.32;64.80;102879.88;5026009;28;20031;-87
2022/03/23 02:44:54;;;;;;;41.95;27.33;;;;;;;5.25;65.36;102883.56;5035409;28;20028;-87
2022/03/23 02:47:19;;;;;;;41.10;25.92;;;;;;;5.25;65.12;102883.56;5035069;28;20025;-86
2022/03/23 02:49:44;;;;;;;40.35;26.73;;;;;;;5.23;65.29;102881.84;5033836;28;20026;-86
2022/03/23 02:52:13;;;;;;;34.55;26.20;;;;;;;5.19;65.45;102879.25;5056231;28;20064;-87
2022/03/23 03:03:41;;;;;;;37.30;25.05;;;;;;;5.06;66.09;102882.19;5015334;28;20047;-87
2022/03/23 03:06:06;;;;;;;39.70;25.83;;;;;;;5.06;65.82;102890.97;5033772;28;20037;-87
2022/03/23 03:08:50;;;;;;;39.15;26.33;;;;;;;4.98;65.64;102888.50;5036973;28;20041;-88
2022/03/23 03:11:20;;;;;;;41.15;26.08;;;;;;;4.96;65.98;102882.41;5040433;28;20325;-86
2022/03/23 03:13:49;;;;;;;37.60;24.27;;;;;;;4.93;65.87;102882.47;5041914;28;20029;-87
2022/03/23 03:16:16;;;;;;;40.63;25.60;;;;;;;4.89;65.92;102879.91;5038250;28;20021;-87
2022/03/23 03:18:42;;;;;;;37.72;25.10;;;;;;;4.90;66.01;102879.03;5044507;28;20148;-87
2022/03/23 03:21:08;;;;;;;38.97;25.13;;;;;;;4.84;66.37;102876.50;5022848;28;20030;-88
2022/03/23 03:23:36;;;;;;;34.95;26.10;;;;;;;4.85;66.76;102889.63;5037387;28;20025;-87
2022/03/23 03:26:06;;;;;;;41.50;27.13;;;;;;;4.80;67.18;102880.97;5099959;22;20060;-81
2022/03/23 03:28:33;;;;;;;38.25;26.52;;;;;;;4.78;67.27;102888.91;5047412;28;20037;-82
2022/03/23 03:30:59;;;;;;;39.25;25.35;;;;;;;4.73;67.63;102893.38;5058386;28;20029;-82
2022/03/23 03:33:24;;;;;;;39.67;25.50;;;;;;;4.71;67.57;102894.28;5060113;28;20033;-82
2022/03/23 03:35:49;;;;;;;47.22;28.00;;;;;;;4.67;67.61;102892.63;5043213;28;20464;-81
2022/03/23 03:38:14;;;;;;;37.95;24.70;;;;;;;4.63;67.50;102895.31;5052531;28;20095;-83
2022/03/23 03:40:40;;;;;;;39.67;25.30;;;;;;;4.58;67.46;102891.00;5053601;28;20040;-82
2022/03/23 03:43:05;;;;;;;35.53;25.30;;;;;;;4.56;67.52;102891.06;5046592;28;20032;-81
2022/03/23 03:45:31;;;;;;;32.83;24.20;;;;;;;4.52;67.75;102894.63;5058098;28;20156;-81
2022/03/23 03:47:56;;;;;;;37.15;25.17;;;;;;;4.50;67.68;102891.19;5053313;28;20028;-82
2022/03/23 03:50:21;;;;;;;40.05;25.60;;;;;;;4.47;67.63;102891.22;5050198;28;20064;-82
2022/03/23 03:52:46;;;;;;;37.67;24.27;;;;;;;4.39;67.67;102885.22;5050192;28;20036;-82
2022/03/23 03:55:12;;;;;;;40.83;24.42;;;;;;;4.40;68.10;102901.00;5044526;28;20490;-83
2022/03/23 03:57:38;;;;;;;39.25;25.88;;;;;;;4.38;68.50;102900.16;5049884;28;20025;-81
2022/03/23 04:00:05;;;;;;;38.90;25.27;;;;;;;4.36;68.42;102896.66;5050096;28;20539;-82
2022/03/23 04:02:30;;;;;;;38.08;25.35;;;;;;;4.33;68.16;102898.47;5049970;28;20021;-82
2022/03/23 04:04:55;;;;;;;37.95;26.00;;;;;;;4.30;67.79;102890.63;5038202;28;20487;-82
2022/03/23 04:07:21;;;;;;;33.85;23.20;;;;;;;4.27;68.07;102896.84;5050769;28;20025;-82
2022/03/23 04:09:46;;;;;;;34.75;23.80;;;;;;;4.23;67.72;102897.78;5050015;28;20017;-82
2022/03/23 04:12:11;;;;;;;40.22;25.42;;;;;;;4.17;68.24;102898.75;5051834;28;20028;-83
2022/03/23 04:14:36;;;;;;;34.25;24.48;;;;;;;4.20;67.82;102901.34;5062708;28;20024;-82
2022/03/23 04:17:02;;;;;;;33.70;23.90;;;;;;;4.17;68.15;102898.75;5049635;28;20443;-81
2022/03/23 04:19:28;;;;;;;37.05;24.98;;;;;;;4.15;68.07;102904.94;5052093;28;20029;-82
2022/03/23 04:21:53;;;;;;;38.75;26.40;;;;;;;4.10;67.87;102897.13;5048312;28;20487;-82
2022/03/23 04:24:18;;;;;;;37.67;25.88;;;;;;;4.09;68.45;102892.75;5051722;28;20036;-82
2022/03/23 04:26:44;;;;;;;36.95;26.30;;;;;;;4.08;67.91;102901.56;5053208;28;20053;-82
2022/03/23 04:29:15;;;;;;;42.00;25.80;;;;;;;4.06;67.58;102895.41;5046900;28;20393;-83
2022/03/23 04:31:40;;;;;;;37.25;26.23;;;;;;;4.07;67.65;102902.44;5030917;28;20092;-82
2022/03/23 04:34:05;;;;;;;36.13;27.70;;;;;;;4.04;67.97;102897.22;5036237;28;20021;-82
2022/03/23 04:36:31;;;;;;;43.85;26.73;;;;;;;4.03;68.29;102903.34;5050828;28;20037;-82
2022/03/23 04:38:56;;;;;;;38.50;27.02;;;;;;;3.97;68.56;102892.97;5048276;28;20031;-82
2022/03/23 04:41:22;;;;;;;42.15;27.50;;;;;;;4.00;67.56;102906.06;5060263;28;20039;-81
2022/03/23 04:43:47;;;;;;;41.75;28.20;;;;;;;4.01;67.89;102908.66;5055370;28;20021;-81
2022/03/23 04:46:13;;;;;;;39.53;26.90;;;;;;;3.98;68.11;102906.09;5044690;28;20033;-81
2022/03/23 04:48:38;;;;;;;39.78;26.90;;;;;;;4.00;68.49;102913.94;5050627;28;20472;-81
2022/03/23 04:51:05;;;;;;;41.08;27.27;;;;;;;3.97;68.15;102914.00;5035670;28;20053;-81
2022/03/23 04:53:30;;;;;;;47.38;29.05;;;;;;;3.92;68.05;102911.44;5033171;28;20641;-81
2022/03/23 04:55:55;;;;;;;39.05;27.83;;;;;;;3.97;67.92;102914.84;5034301;28;20044;-82
2022/03/23 04:58:21;;;;;;;39.83;28.63;;;;;;;3.93;67.89;102920.19;5035754;28;20036;-81
2022/03/23 05:00:46;;;;;;;41.50;27.52;;;;;;;3.93;68.59;102922.81;5035882;28;20038;-82
2022/03/23 05:03:13;;;;;;;41.53;28.10;;;;;;;3.91;68.25;102929.84;5035555;28;20526;-82
2022/03/23 05:05:39;;;;;;;42.95;29.17;;;;;;;3.85;68.61;102929.06;5035628;28;20503;-81
2022/03/23 05:08:04;;;;;;;46.30;28.88;;;;;;;3.87;68.63;102931.66;5035573;28;20037;-81
2022/03/23 05:10:30;;;;;;;42.88;27.38;;;;;;;3.86;68.27;102935.19;5044903;28;20033;-82
2022/03/23 05:12:55;;;;;;;41.55;27.88;;;;;;;3.83;68.01;102927.31;5056139;28;20479;-82
2022/03/23 05:15:20;;;;;;;42.63;28.17;;;;;;;3.80;67.69;102938.78;5065961;28;20029;-81
2022/03/23 05:17:45;;;;;;;44.95;27.88;;;;;;;3.81;68.22;102937.00;5052900;28;20028;-82
2022/03/23 05:20:13;;;;;;;45.95;28.45;;;;;;;3.79;68.99;102942.28;5042317;28;20059;-82
2022/03/23 05:22:39;;;;;;;42.25;27.95;;;;;;;3.74;68.76;102936.22;5054222;28;20025;-81
2022/03/23 05:25:06;;;;;;;44.22;28.08;;;;;;;3.75;68.05;102932.72;5039628;28;20037;-81
2022/03/23 05:27:33;;;;;;;36.92;26.45;;;;;;;3.75;68.35;102935.34;5052198;28;20049;-81
2022/03/23 05:29:59;;;;;;;42.92;28.20;;;;;;;3.74;68.70;102935.38;5054145;28;20036;-82
2022/03/23 05:32:24;;;;;;;37.92;26.30;;;;;;;3.72;68.51;102938.00;5049866;28;20025;-81
2022/03/23 05:34:50;;;;;;;41.03;27.67;;;;;;;3.70;68.61;102934.53;5034903;28;20372;-81
2022/03/23 05:37:16;;;;;;;45.95;28.25;;;;;;;3.69;68.86;102940.69;5034786;28;20057;-81
2022/03/23 05:39:42;;;;;;;44.33;28.35;;;;;;;3.65;68.71;102942.47;5035282;28;20526;-81
2022/03/23 05:42:08;;;;;;;48.55;28.10;;;;;;;3.65;68.42;102954.75;5062072;28;20060;-82
2022/03/23 05:44:34;;;;;;;46.90;27.60;;;;;;;3.59;68.79;102939.06;5054578;28;20031;-80
2022/03/23 05:47:00;;;;;;;42.30;28.05;;;;;;;3.58;68.94;102942.56;5054345;28;20363;-82
2022/03/23 05:49:26;;;;;;;47.58;27.20;;;;;;;3.57;68.88;102946.13;5054582;28;20104;-81
2022/03/23 05:51:52;;;;;;;39.38;26.52;;;;;;;3.55;68.75;102942.63;5055270;28;20044;-81
2022/03/23 05:54:18;;;;;;;42.72;28.23;;;;;;;3.52;69.19;102947.03;5053821;28;20086;-81
2022/03/23 05:56:43;;;;;;;48.03;28.98;;;;;;;3.56;69.11;102949.63;5055332;28;20036;-81
2022/03/23 05:59:08;;;;;;;39.92;26.77;;;;;;;3.57;69.00;102957.47;5055649;28;20380;-80
2022/03/23 06:01:34;;;;;;;39.80;25.60;;;;;;;3.54;68.42;102952.25;5055431;28;20033;-82
2022/03/23 06:04:00;;;;;;;38.45;26.90;;;;;;;3.56;68.66;102955.72;5055078;28;20062;-82
2022/03/23 06:06:25;;;;;;;43.72;28.85;;;;;;;3.53;68.86;102955.81;5051195;28;20053;-82
2022/03/23 06:08:50;;;;;;;47.35;28.85;;;;;;;3.52;69.23;102964.56;5054215;28;20040;-81
2022/03/23 06:11:16;;;;;;;42.97;28.75;;;;;;;3.52;68.97;102962.78;5052986;28;20021;-82
2022/03/23 06:13:41;;;;;;;43.90;27.73;;;;;;;3.52;69.16;102962.78;5034044;28;20026;-81
2022/03/23 06:16:07;;;;;;;42.70;29.05;;;;;;;3.50;69.68;102956.69;5032766;28;20071;-81
2022/03/23 06:18:32;;;;;;;43.88;28.58;;;;;;;3.53;69.67;102966.31;5034294;28;20368;-81
2022/03/23 06:20:58;;;;;;;43.13;29.05;;;;;;;3.48;70.13;102953.22;5044903;28;20029;-81
2022/03/23 06:23:25;;;;;;;42.40;28.58;;;;;;;3.56;70.22;102974.13;5053844;28;20033;-82
2022/03/23 06:25:50;;;;;;;41.97;27.83;;;;;;;3.58;69.93;102963.59;5054491;28;20095;-80
2022/03/23 06:28:15;;;;;;;47.63;29.33;;;;;;;3.58;69.73;102966.22;5055042;28;20055;-81
2022/03/23 06:30:40;;;;;;;45.65;29.35;;;;;;;3.60;69.48;102970.59;5053958;28;20029;-82
2022/03/23 06:33:06;;;;;;;40.85;28.13;;;;;;;3.60;70.35;102965.31;5053742;28;20106;-82
2022/03/23 06:35:31;;;;;;;49.67;30.27;;;;;;;3.63;70.94;102969.66;5053901;28;20074;-82
2022/03/23 06:37:56;;;;;;;47.90;28.23;;;;;;;3.63;70.52;102967.03;5054290;28;20056;-82
2022/03/23 06:40:22;;;;;;;45.05;29.85;;;;;;;3.68;70.61;102975.72;5053617;28;20383;-82
2022/03/23 06:42:47;;;;;;;46.40;30.52;;;;;;;3.67;70.53;102976.63;5053377;28;20025;-81
2022/03/23 06:45:13;;;;;;;44.58;29.98;;;;;;;3.72;70.48;102979.22;5053513;28;20033;-80
2022/03/23 06:47:38;;;;;;;52.55;29.58;;;;;;;3.76;70.96;102989.63;5053291;28;20037;-81
2022/03/23 06:50:05;;;;;;;52.05;31.40;;;;;;;3.77;71.11;102980.00;5053218;28;20025;-80
2022/03/23 06:52:30;;;;;;;46.20;30.55;;;;;;;3.81;71.25;102985.19;5052765;28;20098;-81
2022/03/23 06:54:55;;;;;;;47.65;31.02;;;;;;;3.86;71.56;102993.91;5052576;28;20468;-81
2022/03/23 06:57:21;;;;;;;48.17;32.08;;;;;;;3.89;71.20;102990.34;5052866;28;20514;-81
2022/03/23 06:59:46;;;;;;;55.22;31.88;;;;;;;3.92;71.48;102979.78;5052159;28;20029;-81
2022/03/23 07:02:11;;;;;;;50.25;31.85;;;;;;;3.98;70.89;102984.97;5053628;28;20028;-81
2022/03/23 07:04:37;;;;;;;52.28;32.75;;;;;;;4.04;71.36;102986.63;5052941;28;20472;-81
2022/03/23 07:07:02;;;;;;;45.22;32.13;;;;;;;4.10;71.58;102986.53;5043958;28;20033;-81
2022/03/23 07:09:38;;;;;;;57.53;33.40;;;;;;;4.17;71.23;102984.69;5052784;28;20040;-81
2022/03/23 07:12:06;;;;;;;57.10;32.00;;;;;;;4.23;71.32;102985.47;5049398;28;20456;-80
2022/03/23 07:14:33;;;;;;;51.35;31.63;;;;;;;4.31;71.78;102994.97;5037699;28;20456;-80
2022/03/23 07:16:59;;;;;;;49.28;31.63;;;;;;;4.39;71.19;102995.72;5051321;28;20083;-80
2022/03/23 07:19:24;;;;;;;52.67;33.85;;;;;;;4.45;71.23;102988.59;5035940;28;20037;-80
2022/03/23 07:21:50;;;;;;;51.25;33.13;;;;;;;4.56;71.13;102998.09;5046845;28;20532;-81
2022/03/23 07:24:16;;;;;;;55.00;32.00;;;;;;;4.67;71.05;103004.03;5043388;28;20044;-80
2022/03/23 07:26:42;;;;;;;51.53;32.72;;;;;;;4.80;70.96;102994.19;5051686;28;20041;-80
2022/03/23 07:29:08;;;;;;;50.92;31.77;;;;;;;4.95;69.62;102995.66;5051520;28;20048;-80
2022/03/23 07:31:34;;;;;;;47.35;32.53;;;;;;;5.07;69.31;102995.44;5047028;28;20056;-80
2022/03/23 07:33:59;;;;;;;53.35;33.42;;;;;;;5.28;69.84;103004.69;5044645;28;20046;-80
2022/03/23 07:36:25;;;;;;;47.67;34.03;;;;;;;5.48;68.58;102998.13;5042952;28;20029;-81
2022/03/23 07:38:54;;;;;;;49.50;32.50;;;;;;;5.69;66.93;102997.69;5039342;28;20488;-81
2022/03/23 07:41:19;;;;;;;49.90;32.85;;;;;;;5.92;66.49;103005.09;5048529;28;20029;-80
2022/03/23 07:43:45;;;;;;;51.05;32.53;;;;;;;6.20;66.26;103001.00;5048621;28;20052;-80
2022/03/23 07:46:10;;;;;;;44.20;29.73;;;;;;;6.41;64.79;102995.22;5042111;28;20452;-80
2022/03/23 07:48:36;;;;;;;48.38;30.42;;;;;;;6.78;64.05;103006.63;5032834;28;20041;-81
2022/03/23 07:51:01;;;;;;;48.60;30.02;;;;;;;7.06;63.77;103004.13;5052023;28;20352;-81
2022/03/23 07:53:26;;;;;;;44.10;30.23;;;;;;;7.41;61.92;103010.19;5048098;28;20487;-80
2022/03/23 07:55:52;;;;;;;42.17;29.52;;;;;;;7.75;61.92;103007.44;5031311;28;20022;-85
2022/03/23 07:58:17;;;;;;;43.55;30.40;;;;;;;8.04;61.21;103016.25;5042580;28;20025;-82
2022/03/23 08:00:45;;;;;;;48.05;31.15;;;;;;;8.35;59.82;103012.63;5051287;28;20094;-83
2022/03/23 08:03:10;;;;;;;46.90;29.83;;;;;;;8.74;58.62;103006.94;5051546;28;20066;-83
2022/03/23 08:05:39;;;;;;;46.58;29.27;;;;;;;9.06;57.45;103012.94;5049954;28;20025;-80
2022/03/23 08:08:06;;;;;;;45.15;29.02;;;;;;;9.31;56.03;103018.22;5049708;28;20024;-81
2022/03/23 08:10:31;;;;;;;42.80;29.20;;;;;;;9.62;54.46;103011.78;5052115;28;20102;-83
2022/03/23 08:12:56;;;;;;;43.22;28.83;;;;;;;9.96;53.65;103013.16;5051884;28;20107;-81
2022/03/23 08:15:24;;;;;;;45.33;29.13;;;;;;;10.24;53.98;103004.94;5052111;28;20021;-82
2022/03/23 08:17:49;;;;;;;41.25;27.85;;;;;;;10.55;52.19;103004.56;5051986;28;20040;-80
2022/03/23 08:20:33;;;;;;;43.42;27.70;;;;;;;10.90;51.13;103002.19;5052215;28;20029;-82
2022/03/23 08:23:00;;;;;;;41.45;27.80;;;;;;;11.19;49.83;102993.84;5036232;28;20030;-83
2022/03/23 08:25:26;;;;;;;40.55;27.88;;;;;;;11.50;49.32;103005.78;5039939;28;20025;-82
2022/03/23 08:27:51;;;;;;;39.65;27.42;;;;;;;11.78;46.62;103002.69;5046160;28;20068;-83
2022/03/23 08:30:17;;;;;;;40.72;28.20;;;;;;;12.01;48.40;103010.47;5045687;28;20695;-82
2022/03/23 08:32:42;;;;;;;41.97;28.63;;;;;;;12.31;47.46;102995.75;5055221;28;20033;-82
2022/03/23 08:35:08;;;;;;;37.90;27.63;;;;;;;12.60;46.00;103007.59;5052043;28;20025;-83
2022/03/23 08:37:33;;;;;;;35.97;27.05;;;;;;;12.84;43.99;102994.84;5056012;28;20527;-83
2022/03/23 08:39:59;;;;;;;38.83;27.90;;;;;;;13.04;43.42;102999.13;5046948;28;20024;-82
2022/03/23 08:42:24;;;;;;;38.38;27.05;;;;;;;13.30;43.09;102997.72;5054298;28;20084;-83
2022/03/23 08:44:50;;;;;;;37.88;27.27;;;;;;;13.49;41.78;102997.63;5036280;28;20087;-84
2022/03/23 08:47:17;;;;;;;39.92;26.50;;;;;;;13.80;41.19;102998.59;5043829;28;20030;-84
2022/03/23 08:49:42;;;;;;;40.65;26.55;;;;;;;14.00;40.37;103007.31;5046658;28;20087;-85
2022/03/23 08:52:08;;;;;;;39.20;26.63;;;;;;;14.27;40.92;102999.50;5054208;28;20033;-83
2022/03/23 08:54:33;;;;;;;36.10;26.88;;;;;;;14.55;39.90;103000.56;5057386;28;20433;-83
2022/03/23 08:56:58;;;;;;;37.30;26.48;;;;;;;14.76;39.93;103002.00;5046777;28;20108;-84
2022/03/23 08:59:23;;;;;;;39.13;26.05;;;;;;;15.01;38.67;102988.97;5058128;28;20052;-84
2022/03/23 09:01:49;;;;;;;36.72;27.30;;;;;;;15.30;38.52;102998.69;5068646;28;20033;-84
2022/03/23 09:04:15;;;;;;;35.15;26.38;;;;;;;15.58;38.31;103002.31;5056190;28;20034;-84
2022/03/23 09:06:40;;;;;;;36.60;25.90;;;;;;;15.88;37.06;103004.88;5052451;28;20088;-83
2022/03/23 09:09:06;;;;;;;37.15;27.52;;;;;;;15.97;37.01;102995.41;5053423;28;20036;-82
2022/03/23 09:11:32;;;;;;;38.25;27.45;;;;;;;16.30;37.10;102993.28;5060621;28;20035;-83
2022/03/23 09:13:58;;;;;;;37.33;27.77;;;;;;;16.61;36.35;102992.06;5077580;28;19997;-84
2022/03/23 09:16:23;;;;;;;41.85;27.73;;;;;;;16.70;36.04;102986.06;5069152;28;20036;-82
2022/03/23 09:18:49;;;;;;;40.72;28.50;;;;;;;17.04;36.81;102991.81;5058926;28;20052;-83
2022/03/23 09:21:15;;;;;;;36.78;28.05;;;;;;;17.11;35.61;102987.72;5050194;28;20025;-82
2022/03/23 09:23:43;;;;;;;38.92;29.40;;;;;;;17.34;35.55;102993.31;5061429;28;20066;-85
2022/03/23 09:26:10;;;;;;;37.85;27.83;;;;;;;17.60;35.29;102998.63;5047306;28;20045;-84
2022/03/23 09:28:35;;;;;;;35.42;26.50;;;;;;;17.75;32.94;102990.31;5057544;28;20063;-83
2022/03/23 09:31:01;;;;;;;39.28;26.85;;;;;;;17.97;33.13;102990.56;5048007;28;20029;-83
2022/03/23 09:33:28;;;;;;;37.15;28.25;;;;;;;18.26;34.17;102986.56;5037034;28;20061;-83
2022/03/23 09:35:53;;;;;;;39.15;28.35;;;;;;;18.46;33.77;102990.44;5039643;28;20026;-83
2022/03/23 09:38:19;;;;;;;41.55;27.77;;;;;;;18.68;32.20;102978.03;5058835;28;20045;-82
2022/03/23 09:40:47;;;;;;;44.55;28.95;;;;;;;19.07;33.88;102993.91;5055315;28;20487;-81
2022/03/23 09:43:12;;;;;;;37.60;26.40;;;;;;;19.26;31.52;102990.63;5056647;28;20372;-84
2022/03/23 09:48:11;;;;;;;39.35;25.70;;;;;;;19.69;29.16;102987.16;5054776;28;20044;-83
2022/03/23 09:50:38;;;;;;;34.08;24.52;;;;;;;19.64;28.69;102971.34;5059494;28;20025;-85
2022/03/23 09:53:04;;;;;;;36.22;24.33;;;;;;;19.81;29.63;102977.25;5054889;28;20033;-84
2022/03/23 09:55:30;;;;;;;33.40;22.42;;;;;;;20.06;28.96;102974.22;5053504;28;20037;-85
2022/03/23 09:57:57;;;;;;;29.75;23.00;;;;;;;20.20;27.87;102985.69;5053970;28;20029;-86
2022/03/23 10:00:27;;;;;;;31.00;22.85;;;;;;;20.19;27.76;102984.00;5054096;28;20527;-86
2022/03/23 10:03:11;;;;;;;31.80;21.77;;;;;;;20.47;30.11;102986.06;5052995;28;20179;-86
2022/03/23 10:06:18;;;;;;;30.45;22.52;;;;;;;20.61;27.92;102986.72;5034309;28;20053;-85
2022/03/23 10:09:19;;;;;;;28.45;21.05;;;;;;;20.79;28.67;102982.47;5036050;28;20038;-88
2022/03/23 10:12:06;;;;;;;28.48;20.63;;;;;;;20.98;24.96;102992.50;5044517;28;20062;-87
2022/03/23 10:15:09;;;;;;;30.95;21.80;;;;;;;21.24;27.23;102995.63;5048846;28;20029;-83
2022/03/23 10:17:53;;;;;;;32.00;23.95;;;;;;;21.42;27.50;102990.44;5037064;28;20517;-83
2022/03/23 10:20:18;;;;;;;30.45;23.67;;;;;;;21.40;23.92;102988.84;5045763;28;20032;-85
2022/03/23 10:22:45;;;;;;;29.67;22.23;;;;;;;21.62;25.35;102985.13;5045722;28;20128;-82
2022/03/23 10:25:12;;;;;;;26.90;20.52;;;;;;;21.84;24.25;102988.59;5063580;28;20036;-86
2022/03/23 10:27:38;;;;;;;30.55;21.60;;;;;;;21.91;24.43;102985.19;5060676;28;20049;-83
2022/03/23 10:30:04;;;;;;;30.42;23.25;;;;;;;22.14;22.96;102979.50;5044705;28;20029;-84
2022/03/23 10:32:34;;;;;;;28.80;23.42;;;;;;;22.40;22.97;102985.25;5033416;28;20033;-84
2022/03/23 10:34:59;;;;;;;35.95;23.35;;;;;;;22.45;22.63;102982.06;5033469;28;20058;-83
2022/03/23 10:37:28;;;;;;;27.75;21.83;;;;;;;22.45;22.92;102980.25;5037842;28;20017;-84
2022/03/23 10:39:56;;;;;;;29.33;21.60;;;;;;;22.46;23.00;102971.09;5051650;28;20033;-84
2022/03/23 10:42:23;;;;;;;30.92;22.48;;;;;;;22.86;22.99;102980.03;5052915;28;20024;-84
2022/03/23 10:44:49;;;;;;;25.63;22.15;;;;;;;22.97;22.70;102965.44;5053025;28;20475;-84
2022/03/23 10:47:31;;;;;;;29.05;22.05;;;;;;;22.95;23.88;102972.84;5052433;28;20033;-84
2022/03/23 10:50:04;;;;;;;29.90;21.70;;;;;;;23.07;21.85;102977.13;5052300;28;20108;-84
2022/03/23 10:52:30;;;;;;;29.65;21.92;;;;;;;23.24;22.22;102965.50;5054188;28;20033;-83
2022/03/23 10:55:00;;;;;;;29.63;22.75;;;;;;;23.52;22.19;102970.09;5051558;28;20032;-84
2022/03/23 10:57:48;;;;;;;26.90;20.83;;;;;;;23.62;22.31;102954.59;5044520;28;20037;-84
2022/03/23 11:00:25;;;;;;;23.80;20.17;;;;;;;23.73;20.36;102964.38;5049023;28;20426;-84
2022/03/23 11:02:51;;;;;;;25.23;21.30;;;;;;;23.91;21.18;102957.13;5038101;28;20116;-84
2022/03/23 11:05:37;;;;;;;25.23;21.70;;;;;;;24.02;22.89;102961.47;5032121;28;20116;-84
2022/03/23 11:08:11;;;;;;;28.98;22.60;;;;;;;23.89;20.99;102958.28;5053310;28;20389;-84
2022/03/23 11:16:17;;;;;;;22.95;18.40;;;;;;;24.00;19.52;102955.34;5053368;28;20095;-83
2022/03/23 11:18:44;;;;;;;27.25;19.30;;;;;;;23.98;18.88;102960.06;5051812;28;20025;-83
2022/03/23 11:21:09;;;;;;;23.45;19.45;;;;;;;24.04;18.97;102953.19;5053061;28;20037;-84
2022/03/23 11:23:37;;;;;;;21.05;17.80;;;;;;;24.38;19.52;102953.28;5053359;28;20071;-83
2022/03/23 11:26:08;;;;;;;20.50;16.43;;;;;;;24.34;18.79;102943.75;5052337;28;20053;-83
2022/03/23 11:28:36;;;;;;;22.08;18.00;;;;;;;24.01;18.64;102957.03;5054723;28;20835;-83
2022/03/23 11:31:10;;;;;;;22.13;19.00;;;;;;;24.27;20.18;102950.84;5050525;28;20091;-85